Pie Town, New Mexico
Current Conditions -  °F | °C
As of 6:17 PM on Tuesday 25 Nov 2014 (Local Time) from KGNT Reporting Station
Clear Clear  
Wind Chill: 29°   Ceiling: Unl
Heat Index: 36°   Visibility: 10mi
Dew Point:   Wind: 8mph
Humidity: 24%   Direction: 340°NNW
Pressure: 30.32"   Gusts: NA
Location:  34.3°N, 108.15°W
Report Text: KGNT 260117Z AUTO 34007KT 10SM CLR 02/M17 A3032 RMK AO2
Loading
Personal Weather Stations






























Interactive Weather Map New forecast layout! Learn more

10-Day Weather Forecast

Advertisements
Track Severe Weather on mobile